KQEL

Gapyong

Gapyong, South Korea
METAR KQEL 170120Z AUTO 23002KT 8000 HZ OVC031 10/08 A3011 RMK A02 TSNO
Observed Flight Rules
Oct-17 @ 01:20 UTC (10 minutes ago) Marginal Visual Flight Rules
Wind Visibility Clouds Conditions
230° at 2 knots 7,998 meters
  • Overcast at 3,100' AGL
  • Haze
Temperatures Readings
Current 10°C / 50°F
Dewpoint 8°C / 46°F
Humidity 88%
Altimeter 30.11" Hg
Pressure 1020 hPa
METAR KQEL 170120Z AUTO 23002KT 8000 HZ OVC031 10/08 A3011 RMK A02 TSNO
Observed Flight Rules
Oct-17 @ 01:20 UTC
(10 minutes ago)
MVFR
Wind Visibility
230° at 2 knots 7,998 meters
Clouds
  • Overcast at 3,100' AGL
Conditions
  • Haze
Temperature Dewpoint
10°C / 50°F 8°C / 46°F
Humidity Altimeter Pressure
88% 30.11" Hg 1020 hPa